This is the latest recevied weather packets stored in our database for station/object KJ6LNH-1. If no packets are shown the sender has not sent any weather packets the latest 10 day(s).
| Time | Temp. | Humidity | Pressure | Rain* | Wind** | Luminosity | Snow |
|---|---|---|---|---|---|---|---|
| 1778097007 | 23.33° C | 48% | 1018.7 hPa | 0 mm | - | - | - |
| 1778096710 | 23.33° C | 49% | 1018.7 hPa | 0 mm | - | - | - |
| 1778096108 | 23.33° C | 49% | 1018.8 hPa | 0 mm | - | - | - |
| 1778095508 | 23.33° C | 51% | 1018.9 hPa | 0 mm | - | - | - |
| 1778095336 | 23.33° C | 52% | 1018.9 hPa | 0 mm | - | - | - |
| 1778095208 | 23.33° C | 52% | 1018.9 hPa | 0 mm | - | - | - |
| 1778094907 | 23.89° C | 50% | 1019 hPa | 0 mm | - | - | - |
| 1778094607 | 23.89° C | 52% | 1019 hPa | 0 mm | - | - | - |
| 1778094008 | 23.89° C | 53% | 1019 hPa | 0 mm | - | - | - |
| 1778093707 | 23.33° C | 53% | 1019 hPa | 0 mm | - | - | - |
| 1778093408 | 23.33° C | 54% | 1019 hPa | 0 mm | - | - | - |
| 1778092808 | 22.22° C | 55% | 1019.1 hPa | 0 mm | - | - | - |
| 1778092508 | 22.22° C | 55% | 1019.1 hPa | 0 mm | - | - | - |
| 1778092208 | 21.67° C | 57% | 1019.1 hPa | 0 mm | - | - | - |
| 1778091911 | 22.78° C | 54% | 1019.2 hPa | 0 mm | - | - | - |
| 1778091307 | 22.22° C | 56% | 1019.2 hPa | 0 mm | - | - | - |
| 1778091007 | 22.78° C | 54% | 1019.2 hPa | 0 mm | - | - | - |
| 1778090108 | 22.22° C | 55% | 1019.2 hPa | 0 mm | - | - | - |
| 1778089807 | 21.11° C | 58% | 1019.2 hPa | 0 mm | - | - | - |
| 1778089509 | 20.56° C | 59% | 1019.2 hPa | 0 mm | - | - | - |
| 1778089208 | 21.11° C | 57% | 1019.3 hPa | 0 mm | - | - | - |
| 1778088908 | 20.56° C | 61% | 1019.3 hPa | 0 mm | - | - | - |
| 1778088607 | 20° C | 60% | 1019.3 hPa | 0 mm | - | - | - |
| 1778088307 | 18.89° C | 63% | 1019.3 hPa | 0 mm | - | - | - |
| 1778087708 | 19.44° C | 63% | 1019.3 hPa | 0 mm | - | - | - |
* Rain latest hour (hover to see other rain measurements)
** Current wind speed in m/s (hover to see current wind gust speed)